< < Back
Terminal Aerodrome Forecast


Current Version              Previous Versions:   1  2  3  4  5  6  7  8  9  

Terminal Aerodrome Forecast

868
FTUS42 KTAE 300750 AAA
TAFABY
TAF AMD
KABY 300750Z 3008/3106 00000KT 6SM BR SCT003 SCT010 SCT110
      TEMPO 3008/3012 4SM BR BKN003 BKN010
     FM301300 32005KT P6SM SCT040
     FM301900 20010KT P6SM VCTS SCT050CB
      TEMPO 3022/3102 VRB15G25KT 2SM +TSRA BKN040CB
     FM310400 VRB03KT P6SM SCT030 OVC250=



Latest METAR

173
SAUS70 KWBC 301000 RRG
MTRABY
METAR KABY 300953Z AUTO 20005KT 5SM BR OVC003 25/24 A2994 RMK AO2 SLP136
T02500239


USA.gov is the U.S. government's official web portal to all federal, state and local government web resources and services.